Create Custom Reports and Graphics: Custom Report

Latest Observations

Map

15 Minute Data

Latest Observation

40 Stations

15 Minute Data | America/Los_Angeles
as of 1/30/23 3:38 AM PST
Station Date Time Storm Total (In) Temp (°F) RH (%) Dew Pt (°F) Wind Dir (°) Wind Spd (mph) Wind Gust (mph) WindChill (°F) Solar Rad (W/m2) Latest Rain (In) Daily Rain (In) Daily Max Temp (°F) Daily Min Temp (°F) Daily Max Wind (mph) Daily ETo (in) Daily Leaf Wet Hrs (hrs)
Colony 1 1/30/23 0330 - 37.6   6.6 49   40 20.2   21.1 NNW | 336 8.1   3.9 16.1   9.7 31.6 0   0 0.00 0.00 40.9   3.4 37.5   2.8 18.4   10.6 0.003   0.003 -
Colony 2 1/30/23 0330 - 36.6   7.6 51   37 20.1   20.7 NNW | 328 7.3   2.7 12.4   4.4 30.8 0   0 0.00 0.00 39.8   4.5 36.5   3.8 15.4   7.4 0.003   0.003 -
Gill Ranch 1/30/23 0330 - 35.0   9.8 63   25 23.6   17.7 NNW | 338 7.9   2.4 11.1   2.2 28.6 0   0 0.00 0.00 38.2   6.7 34.9   6.9 13.5   4.5 0.001   0.001 -
5 Wells 1/30/23 0330 - 37.0   5.9 50   39 20.0   19.8 NNW | 333 9.9   5.5 15.4   9.1 30.0 0   0 0.00 0.00 38.8   4.3 36.7   2.9 15.4   8.4 0.002   0.002 -
Simmerhorn 1/30/23 0330 - 36.5   6.7 52   48 20.4   22.8 - - - - - - - 38.3   5.2 36.3   4.3 - - -
Galt-East 1/30/23 0330 - 36.2   5.1 60   39 23.8   17.4 NNW | 331 6.2   3.8 13.1   9.0 31.1 0   0 0.00 0.00 38.5   3.6 35.5   3.7 13.1   7.2 0.000   0.000 -
Borden Hills 1/30/23 0330 - 35.5   9.5 66   22 25.3   16.3 NNW | 334 9.4   4.4 15.0   7.5 28.3 0   0 0.00 0.00 38.4   6.7 35.2   6.2 15.0   6.1 0.000   0.000 -
Sierra Loma-L27 1/29/23 2315 - 37.6   4.8 93   1 35.9   4.5 SE | 128 2.9   0.3 4.6   0.4 - - 0.00 0.00 54.1   6.9 37.2   4.4 13.6   4.3 - -
Lone Oak-L28 1/30/23 0330 - 32.5   6.5 82   13 27.6   10.0 NNW | 333 4.7   1.5 6.9   3.0 28.0 - 0.00 0.00 37.2   2.6 28.9   5.4 8.2   2.1 - -
Lockeford 1/30/23 0330 - 35.9   6.0 60   29 23.5   15.5 NW | 326 6.8   6.0 11.8   9.1 30.3 1   0 0.00 0.00 38.0   4.4 35.6   2.5 14.2   9.7 0.000   0.000 0.4   3.0
Kost Rd 1/30/23 0330 - 37.3   7.4 60   34 24.5   18.3 NNW | 334 6.1   2.8 12.4   6.3 32.5 0   0 0.00 0.00 41.1   3.9 37.0   2.9 15.4   8.8 0.003   0.003 -
Thornton 1/30/23 0330 - 37.9   6.7 51   35 21.6   19.1 NNW | 340 12.3   9.1 19.2   14.1 30.1 0   0 0.00 0.00 40.9   4.2 37.8   2.9 25.2   19.8 0.004   0.004 0.0   2.7
Lodi (LangeTwins) 1/30/23 0330 - 36.8   5.7 60   33 24.4   16.5 NNW | 337 8.9   6.2 16.2   12.1 30.2 0   0 0.00 0.00 40.0   4.9 36.5   3.4 17.8   12.4 0.003   0.003 0.0   0.0
Gilbeau Ranch 1/30/23 0330 - 37.1   5.9 48   38 19.2   19.9 NNW | 331 6.2   3.7 11.2   6.5 32.1 0   0 0.00 0.00 39.4   3.8 36.9   3.9 14.2   7.5 0.001   0.001 -
Galt West 1/30/23 0330 - 37.2   6.8 53   38 21.5   19.8 NNW | 336 8.4   5.9 14.8   10.1 31.0 0   0 0.00 0.00 40.8   3.6 36.8   4.5 17.0   10.8 0.003   0.003 -
Valley Oak 1/30/23 0330 - 36.8   6.6 - - NNW | 334 6.9   4.0 12.3   6.4 31.4 0   0 0.00 0.00 40.3   3.4 36.6   2.9 17.0   10.7 0.004   0.004 -
Guard Rd (Lodi WSW) 1/30/23 0330 - 37.8   6.8 46   38 19.1   21.0 NNW | 341 9.2   5.8 17.7   11.5 31.3 0   0 0.00 0.00 40.1   7.8 37.1   7.4 19.6   11.3 0.004   0.004 0.0   0.0
Linden 1/30/23 0330 0.12 35.2   5.4 65   27 24.6   13.8 NNW | 331 3.1   1.9 6.5   4.0 32.8 - - 0.00 39.1   2.1 34.0   0.3 9.2   4.9 - 3.5   0.0
DeVries Road-North 1/30/23 0330 - 36.8   7.6 58   32 23.4   18.3 NNW | 327 7.6   4.6 12.9   8.4 30.8 0   0 0.00 0.00 40.3   4.5 36.6   4.1 16.8   11.6 0.003   0.003 -
Acampo 1/30/23 0330 - 37.2   3.9 47   40 19.1   18.8 NNW | 328 7.5   5.3 14.2   10.4 31.5 0   0 - 0.00 40.1   5.2 37.0   4.1 17.5   11.7 0.003   0.003 0.1   3.3
Acampo (Woodbridge) 1/30/23 0330 - 36.9   5.4 53   36 21.1   18.2 NW | 325 8.7   5.0 13.5   8.2 30.4 0   0 0.00 0.00 40.0   5.0 36.5   4.0 14.9   8.8 0.003   0.003 -
Lodi West 1/30/23 0315 - 37.5   6.2 46   39 18.7   20.9 NNW | 337 5.3   2.3 13.6   7.7 33.3 0   0 0.00 0.00 40.4   6.5 37.2   5.6 17.8   9.2 0.003   0.003 0.0   0.0
Teresi-Alpine Rd (East Lodi) 1/30/23 0330 - 37.0   4.0 52   40 21.2   17.9 NNW | 347 8.4   5.9 13.0   8.5 30.7 - 0.00 0.00 39.4   3.2 36.7   2.5 13.0   8.2 - -
Victor - N (Katusha) 1/30/23 0330 - 36.2   6.0 50   34 19.4   18.4 NW | 309 5.2   5.2 9.1   9.1 - - 0.00 0.00 39.1   3.5 35.8   4.4 11.1   5.4 - -
Live Oak 1/30/23 0330 - 37.0   8.8 52   26 21.1   18.2 NNW | 338 6.4   1.8 12.6   4.5 31.9 0   0 0.00 0.01 40.4   6.0 36.9   6.5 12.6   3.7 0.001   0.001 -
Sheldon 1/30/23 0330 - 36.3   7.1 54   34 21.3   18.9 NNW | 327 7.9   4.1 12.1   6.0 30.1 0   0 0.00 0.00 40.2   3.4 36.2   3.2 17.8   11.4 0.004   0.004 0.0   0.0
Sloughhouse 1/30/23 0330 - 35.5   9.3 56   30 21.2   19.6 NNW | 344 5.1   0.4 9.1   0.7 31.1 0   0 0.00 0.00 38.5   6.6 35.0   2.9 11.1   2.3 0.002   0.002 -
Utter - Wilson 1/30/23 0330 - 37.8   2.6 52   43 21.7   17.5 NNW | 334 13.4   10.1 24.2   19.2 29.5 0   0 0.00 0.00 40.0   3.5 37.6   2.7 27.9   19.8 0.004   0.004 -
Clarksburg 1/30/23 0330 - 38.7   1.1 43   48 18.1   19.4 NNW | 346 14.6   11.1 23.0   17.3 30.3 0   0 0.00 0.00 41.1   1.5 38.3   1.2 24.2   17.5 0.005   0.005 -
Clarksburg-3A2 1/30/23 0330 - 37.5   4.0 49   44 20.2   19.6 NE | 48 16.6   12.8 21.1   14.7 28.2 0   0 0.00 0.00 40.1   3.4 37.4   2.8 26.4   19.0 0.005   0.005 -
Gorter - Wilson 1/30/23 0300 - 37.5   3.2 55   42 22.7   17.2 NNW | 335 13.7   9.7 21.5   15.7 29.0 0   0 0.00 0.00 39.7   3.0 37.2   3.3 25.4   18.3 0.004   0.004 -
Hood 1/30/23 0330 - 38.2   2.0 47   53 19.6   20.5 NNW | 344 10.0   6.7 18.9   14.0 31.3 0   0 0.00 0.00 40.8   0.8 38.0   1.5 21.9   17.0 0.004   0.004 -
Courtland-C3 1/30/23 0330 - 36.6   3.7 51   44 20.4   18.9 NNW | 333 15.1   11.3 22.4   17.3 27.5 - 0.00 0.00 39.4   3.5 36.4   2.2 25.2   19.9 - -
Pacific Fruit 1/30/23 0330 - 38.6   1.6 49   49 21.0   18.6 NNW | 343 7.9   4.6 16.0   11.7 33.0 0   0 0.00 0.00 40.5   1.8 38.3   0.7 18.6   13.9 0.004   0.004 -
Ryer Island South 1/30/23 0330 - 39.3   6.0 45   51 19.8   24.5 NNW | 341 15.0   12.2 21.3   16.5 31.0 0   0 0.00 0.00 41.4   4.2 39.0   3.6 27.8   22.0 0.006   0.006 0.0   3.5
Farmington (Mobley100) 1/30/23 0330 - 32.6   4.9 84   12 28.4   8.2 WNW | 283 0.9   0.8 3.7   2.5 - - - - 38.8   1.0 32.3   4.0 9.2   6.8 - -
Collegeville 1/30/23 0330 - 35.2   2.3 68   30 25.7   11.3 WNW | 294 2.8   2.2 5.3   3.2 - 0   0 0.00 0.00 39.6   1.1 34.8   1.6 7.3   3.8 0.000   0.000 -
Oakdale North (28 Mile Rd) 1/30/23 0330 - 33.6   4.1 92   3 31.7   4.9 W | 268 1.6   1.5 4.2   3.2 - - - - 38.2   2.9 33.5   3.7 5.6   1.4 - -
Escalon 1/30/23 0330 - 34.9   3.8 75   25 27.9   10.9 W | 279 3.7   3.0 6.3   4.0 31.8 - 0.00 0.00 39.0   1.0 34.9   1.5 8.5   4.1 - 0.7   2.8
Claussen 1/30/23 0330 - 37.6   3.8 57   38 23.8   16.4 NW | 312 5.5   4.1 12.1   6.1 33.2 0   0 0.00 0.00 40.5   7.5 37.3   3.8 12.1   1.7 0.002   0.002 -
Max     - 39.3 92 31.7 - 16.6 24.2 33.3 1 0.00 0.01 41.4 39.0 27.9 0.006 3.5
Avg     - 36.6 57 22.3 - 8.0 13.7 30.7 0 0.00 - - - - - -
Min     - 32.5 43 18.1 - 0.9 3.7 27.5 0 0.00 0.00 37.2 28.9 5.6 0.000 0.0

Latest Observations

Map

Hourly Data